Seward, AK

10:42 AM AKDT on September 01, 2014 (GMT -0800)
Oak Street Forest Acres Seward Alaska | Change Station
CLOSE
Current Station
Personal Weather Station
Location: Seward, AK
Elevation: 144 ft
Nearby Weather Stations

Elev 144 ft 60.14 °N, 149.44 °W | Updated 22 seconds ago

Clear
Clear
56.9 °F
Feels Like 56.9 °F
N
0.0
Wind Variable Wind from NNE

Today
High -- | Low -- °F
--% Chance of Precip.
Yesterday
High -- | Low -- °F
Precip. -- in
6:52 AM 9:00 PM
Waxing Crescent, 43% visible
Pressure 29.87 in
Visibility 10.0 miles
Clouds Clear
Dew Point 35 °F
Humidity 43%
Rainfall 0.00 in
Snow Depth 0 in , 16 in
UV 15.0 out of 12
Pollen Not available.
Air Quality Not available.
Flu Activity Not available.
METAR PAWD 011753Z AUTO 04013KT 10SM CLR 12/02 A2987 RMK AO2 SLP115 T01220022 10122 20083 51009 TSNO

More Conditions Fewer Conditions

Pressure 29.87 in
Visibility 10.0 miles
Clouds Clear
Dew Point 35 °F
Humidity 43%
Rainfall 0.00 in
Snow Depth 0 in , 16 in
UV 15.0 out of 12
Pollen Not available.
Air Quality Not available.
Flu Activity Not available.
METAR PAWD 011753Z AUTO 04013KT 10SM CLR 12/02 A2987 RMK AO2 SLP115 T01220022 10122 20083 51009 TSNO

More Conditions Fewer Conditions

10-Day Weather Forecast

Almanac

Astronomy

Sep. 01, 2014 Rise Set
Actual Time 6:52 AM AKDT 9:00 PM AKDT
Civil Twilight 6:07 AM AKDT 9:45 PM AKDT
Nautical Twilight 5:08 AM AKDT 10:43 PM AKDT
Astronomical Twilight 3:52 AM AKDT 11:58 PM AKDT
Moon 3:35 PM AKDT 11:21 PM AKDT
Length of Visible Light 15h 38m
Length of Day
14h 07m
Tomorrow will be 5m 23s shorter.
Waxing Crescent, 43% of the Moon is Illuminated
Today
Waxing Crescent
Sep 2
First Quarter
Sep 8
Full
Sep 15
Last Quarter
Sep 24
New

Today's Extremes

State Highs State Lows

Community

WunderPhotos

Upload Photos

1,749,359 photos uploaded!

Nearby

Snow Depth

Station Depth Elevation
Grouse Creek Divide 0 in 700 ft
Cooper Lake 16 in 1200 ft
Summit Creek 0 in 1400 ft
Grandview 0 in 1100 ft
Turnagain Pass 1 in 1880 ft

Earthquake Activity

City Distance Mag. Time & Date
No recent earthquake activity has been reported nearby.
Minimum magnitude displayed is 2.5.

Coastal Water Temperatures

Place Temperature
No Stations Reporting

Nearby Weather Stations